aviador You're here:

LFSO Decoded Metar

NANCY OCHEY in FRANCE
Report Time2017-09-23 11:00:00
UTC Time2017-09-23 11:12:45
Flight Rules vfr VFR
WindVRB at 03 kt
Visibility9999 m
Phenomena:N/A
Clouds:Few 022 Hf
Expected CloudBase > 2,000 ft AGL from Temp-Dew spread
CeilingNone
Temp18°C (ISA +5)
Dew Point13°C (73% RH)
AAT17.9°C
QNH1022 hPa
Density Alt1,670 ft
Elevation1,148 ft
Report Wrong Elevation
Raw Report
LFSO 231100Z AUTO VRB03KT 9999 FEW022 18/13 Q1022 NOSIG=

Extra information for LFSO:More info

Metar Taf Metar & Taf Last 4 Metars F.Rules Stats Wind Profile Meteogram Temp Stats Airport Information Weather charts Add Link Nearby VenuesMetar ALERT Operation Metar Decoded Social comments